Time;durP1;ratioP1;P1;durP2;ratioP2;P2;SDS_P1;SDS_P2;PMS_P1;PMS_P2;Temp;Humidity;BMP_temperature;BMP_pressure;BME280_temperature;BME280_humidity;BME280_pressure;Samples;Min_cycle;Max_cycle;Signal;HPM_P1;HPM_P2
2023/12/24 00:01:15;;;;;;;14.07;10.00;;;9.00;99.90;;;;;;4938413;29;20062;-53
2023/12/24 00:03:41;;;;;;;14.35;10.05;;;9.00;99.90;;;;;;4952336;29;20035;-52
2023/12/24 00:06:07;;;;;;;17.35;10.57;;;9.00;99.90;;;;;;4954141;29;20056;-53
2023/12/24 00:08:35;;;;;;;15.40;9.93;;;9.20;99.90;;;;;;4904691;29;20035;-53
2023/12/24 00:11:00;;;;;;;14.02;8.50;;;9.30;99.90;;;;;;4954132;29;20157;-53
2023/12/24 00:13:26;;;;;;;13.35;8.23;;;9.30;99.90;;;;;;4954313;29;20114;-52
2023/12/24 00:15:52;;;;;;;12.88;8.10;;;9.20;99.90;;;;;;4954355;29;20060;-52
2023/12/24 00:18:19;;;;;;;11.68;7.47;;;9.20;99.90;;;;;;4953389;28;20043;-53
2023/12/24 00:20:44;;;;;;;10.20;6.75;;;9.20;99.90;;;;;;4954009;29;20031;-53
2023/12/24 00:23:11;;;;;;;10.60;7.65;;;9.20;99.90;;;;;;4954236;29;20034;-52
2023/12/24 00:25:38;;;;;;;13.10;7.72;;;9.20;99.90;;;;;;4954120;29;20063;-52
2023/12/24 00:28:04;;;;;;;12.48;8.73;;;9.30;99.90;;;;;;4954125;29;20046;-53
2023/12/24 00:30:30;;;;;;;12.30;8.57;;;9.50;99.90;;;;;;4953852;29;20397;-52
2023/12/24 00:32:57;;;;;;;11.35;8.13;;;9.40;99.90;;;;;;4953827;29;20039;-53
2023/12/24 00:35:23;;;;;;;14.18;8.90;;;9.30;99.90;;;;;;4919876;29;20035;-52
2023/12/24 00:37:50;;;;;;;11.35;7.47;;;9.30;99.90;;;;;;4954028;29;20027;-53
2023/12/24 00:40:17;;;;;;;12.55;8.88;;;9.30;99.90;;;;;;4954187;29;20078;-53
2023/12/24 00:42:43;;;;;;;13.10;9.25;;;9.40;99.90;;;;;;4953798;29;20427;-53
2023/12/24 00:45:10;;;;;;;13.52;9.57;;;9.50;99.90;;;;;;4953787;29;20038;-52
2023/12/24 00:47:36;;;;;;;10.10;8.18;;;9.40;99.90;;;;;;4953841;29;20046;-52
2023/12/24 00:50:03;;;;;;;13.40;8.73;;;9.40;99.90;;;;;;4954079;29;20039;-52
2023/12/24 00:52:29;;;;;;;13.15;8.07;;;9.50;99.90;;;;;;4888735;29;20526;-52
2023/12/24 00:54:55;;;;;;;12.88;7.43;;;9.50;99.90;;;;;;4953688;29;20070;-52
2023/12/24 00:57:20;;;;;;;12.60;7.88;;;9.40;99.90;;;;;;4954014;29;20038;-53
2023/12/24 00:59:46;;;;;;;14.38;7.88;;;9.30;99.90;;;;;;4951521;29;20040;-52
2023/12/24 01:02:12;;;;;;;10.32;7.80;;;9.40;99.90;;;;;;4953478;29;20184;-51
2023/12/24 01:04:39;;;;;;;9.15;7.32;;;9.50;99.90;;;;;;4919600;29;20055;-53
2023/12/24 01:07:04;;;;;;;9.13;6.95;;;9.40;99.90;;;;;;4951502;29;20043;-53
2023/12/24 01:09:30;;;;;;;11.15;8.25;;;9.50;99.90;;;;;;4953454;29;20377;-53
2023/12/24 01:11:56;;;;;;;12.05;8.63;;;9.50;99.90;;;;;;4953843;29;20035;-53
2023/12/24 01:14:21;;;;;;;14.43;10.30;;;9.50;99.90;;;;;;4904080;29;20031;-52
2023/12/24 01:16:47;;;;;;;43.13;28.33;;;9.60;99.90;;;;;;4953598;29;20042;-52
2023/12/24 01:19:13;;;;;;;39.60;24.60;;;9.70;99.90;;;;;;4953579;29;20031;-53
2023/12/24 01:21:39;;;;;;;44.17;27.60;;;9.80;99.90;;;;;;4953372;29;20106;-52
2023/12/24 01:24:05;;;;;;;27.30;18.27;;;;;;;;;;4953462;29;20027;-52
2023/12/24 01:26:36;;;;;;;19.70;13.30;;;9.90;99.90;;;;;;4953419;29;20031;-52
2023/12/24 01:29:03;;;;;;;16.20;11.52;;;9.80;99.90;;;;;;4954446;28;20055;-52
2023/12/24 01:31:28;;;;;;;17.63;11.57;;;9.90;99.90;;;;;;4957142;29;20042;-52
2023/12/24 01:33:54;;;;;;;24.33;15.68;;;9.70;99.90;;;;;;4956933;29;20035;-52
2023/12/24 01:36:20;;;;;;;40.05;24.73;;;10.00;99.90;;;;;;4957484;29;20637;-53
2023/12/24 01:38:46;;;;;;;38.65;25.77;;;9.90;99.90;;;;;;4907108;29;20395;-52
2023/12/24 01:41:12;;;;;;;32.00;21.05;;;9.90;99.90;;;;;;4956896;29;20106;-52
2023/12/24 01:43:44;;;;;;;24.90;16.73;;;9.90;99.90;;;;;;4956736;29;20162;-52
2023/12/24 01:46:12;;;;;;;27.40;18.42;;;9.90;99.90;;;;;;4953836;29;20030;-53
2023/12/24 01:48:40;;;;;;;29.75;19.95;;;9.90;99.90;;;;;;4956561;29;20046;-52
2023/12/24 01:51:07;;;;;;;77.28;46.03;;;9.90;99.90;;;;;;4956624;29;20023;-53
2023/12/24 01:53:33;;;;;;;89.53;52.40;;;9.90;99.90;;;;;;4956862;29;20031;-53
2023/12/24 01:56:01;;;;;;;17.75;12.20;;;10.00;99.90;;;;;;4956893;29;20054;-53
2023/12/24 01:58:29;;;;;;;15.50;11.43;;;9.70;99.90;;;;;;4956730;29;20027;-53
2023/12/24 02:00:55;;;;;;;16.45;11.35;;;9.60;99.90;;;;;;4956241;29;20118;-53
2023/12/24 02:03:22;;;;;;;19.60;14.27;;;9.30;99.90;;;;;;4956424;29;20050;-53
2023/12/24 02:05:49;;;;;;;22.27;15.65;;;9.20;99.90;;;;;;4907390;29;20446;-52
2023/12/24 02:08:16;;;;;;;20.58;14.27;;;9.00;99.90;;;;;;4956275;29;20042;-52
2023/12/24 02:10:42;;;;;;;17.48;12.57;;;8.80;99.90;;;;;;4906826;29;20054;-52
2023/12/24 02:13:09;;;;;;;15.75;10.95;;;8.90;99.90;;;;;;4956334;29;20119;-52
2023/12/24 02:15:35;;;;;;;17.75;11.65;;;8.50;99.90;;;;;;4956327;29;20057;-51
2023/12/24 02:18:01;;;;;;;15.18;11.45;;;8.30;99.90;;;;;;4955982;29;20415;-52
2023/12/24 02:20:27;;;;;;;13.65;10.50;;;8.40;99.90;;;;;;4956256;29;20046;-53
2023/12/24 02:22:53;;;;;;;14.18;8.38;;;8.50;99.90;;;;;;4956058;29;20035;-52
2023/12/24 02:25:20;;;;;;;11.63;8.07;;;8.50;99.90;;;;;;4956061;29;20078;-52
2023/12/24 02:28:09;;;;;;;10.75;7.57;;;8.40;99.90;;;;;;4938523;29;20031;-52
2023/12/24 02:30:44;;;;;;;12.02;8.18;;;8.30;99.90;;;;;;4956191;29;20042;-51
2023/12/24 02:33:12;;;;;;;10.85;7.45;;;8.30;99.90;;;;;;4956153;29;20506;-52
2023/12/24 02:35:39;;;;;;;11.90;7.70;;;8.40;99.90;;;;;;4955723;29;20616;-52
2023/12/24 02:38:05;;;;;;;11.43;7.68;;;8.20;99.90;;;;;;4956045;29;20019;-51
2023/12/24 02:40:31;;;;;;;11.40;7.45;;;8.10;99.90;;;;;;4955782;28;20467;-52
2023/12/24 02:42:57;;;;;;;10.73;8.23;;;;;;;;;;4955662;29;20677;-53
2023/12/24 02:45:23;;;;;;;10.50;7.45;;;8.10;99.90;;;;;;4955667;29;20035;-52
2023/12/24 02:47:48;;;;;;;11.07;7.95;;;8.10;99.90;;;;;;4953352;29;20102;-52
2023/12/24 02:50:18;;;;;;;10.27;7.55;;;8.10;99.90;;;;;;4955613;29;20042;-52
2023/12/24 02:52:44;;;;;;;10.25;7.15;;;8.20;99.90;;;;;;4955536;29;20094;-52
2023/12/24 02:55:11;;;;;;;10.80;8.30;;;8.10;99.90;;;;;;4955542;29;20122;-53
2023/12/24 02:57:36;;;;;;;11.13;7.13;;;8.10;99.90;;;;;;4956607;29;20471;-53
2023/12/24 03:00:04;;;;;;;14.45;8.57;;;8.10;99.90;;;;;;4956152;29;20089;-52
2023/12/24 03:02:32;;;;;;;11.02;8.05;;;8.30;99.90;;;;;;4907528;29;20059;-53
2023/12/24 03:04:57;;;;;;;11.57;7.45;;;8.30;99.90;;;;;;4956125;29;20039;-52
2023/12/24 03:07:23;;;;;;;10.75;8.20;;;8.20;99.90;;;;;;4955606;29;20098;-52
2023/12/24 03:09:49;;;;;;;10.07;7.95;;;8.20;99.90;;;;;;4955815;29;20078;-52
2023/12/24 03:12:15;;;;;;;13.43;8.77;;;8.30;99.90;;;;;;4955954;29;20428;-53
2023/12/24 03:14:40;;;;;;;11.65;8.88;;;8.20;99.90;;;;;;4955744;29;20066;-52
2023/12/24 03:17:06;;;;;;;10.65;7.60;;;8.20;99.90;;;;;;4955411;29;20031;-53
2023/12/24 03:19:35;;;;;;;11.20;8.40;;;8.10;99.90;;;;;;4955526;29;20046;-53
2023/12/24 03:22:01;;;;;;;12.80;8.70;;;8.00;99.90;;;;;;4955391;29;20493;-52
2023/12/24 03:24:26;;;;;;;13.93;10.02;;;8.00;99.90;;;;;;4955810;29;20118;-53
2023/12/24 03:26:52;;;;;;;15.35;10.02;;;8.10;99.90;;;;;;4955320;29;20399;-53
2023/12/24 03:29:18;;;;;;;12.90;8.18;;;8.00;99.90;;;;;;4955061;29;20058;-52
2023/12/24 03:31:44;;;;;;;13.52;7.80;;;8.00;99.90;;;;;;4955203;29;20038;-53
2023/12/24 03:34:10;;;;;;;9.63;7.03;;;7.90;99.90;;;;;;4953042;29;20043;-52
2023/12/24 03:36:35;;;;;;;14.35;8.07;;;7.80;99.90;;;;;;4955088;29;20468;-53
2023/12/24 03:39:01;;;;;;;11.43;7.82;;;7.90;99.90;;;;;;4954598;29;20467;-53
2023/12/24 03:41:27;;;;;;;12.18;8.30;;;7.90;99.90;;;;;;4954801;29;20390;-53
2023/12/24 03:43:53;;;;;;;11.30;7.90;;;7.90;99.90;;;;;;4954591;29;20391;-52
2023/12/24 03:46:19;;;;;;;10.20;7.07;;;7.90;99.90;;;;;;4954552;29;20054;-52
2023/12/24 03:48:45;;;;;;;11.48;7.80;;;7.90;99.90;;;;;;4954696;29;20051;-51
2023/12/24 03:51:11;;;;;;;10.27;7.43;;;7.80;99.90;;;;;;4953946;28;20027;-52
2023/12/24 03:53:40;;;;;;;10.60;7.65;;;7.90;99.90;;;;;;4936051;29;20106;-52
2023/12/24 03:56:06;;;;;;;8.93;7.03;;;7.90;99.90;;;;;;4954756;29;20042;-53
2023/12/24 03:58:31;;;;;;;10.07;6.68;;;7.90;99.90;;;;;;4954308;29;20028;-52
2023/12/24 04:00:57;;;;;;;10.02;6.57;;;7.90;99.90;;;;;;4954096;29;20491;-52
2023/12/24 04:03:23;;;;;;;9.52;6.45;;;7.90;99.90;;;;;;4954211;29;20027;-52
2023/12/24 04:05:49;;;;;;;7.85;5.65;;;7.90;99.90;;;;;;4904712;29;20047;-52
2023/12/24 04:08:15;;;;;;;7.57;5.55;;;7.80;99.90;;;;;;4936882;29;20039;-52
2023/12/24 04:10:42;;;;;;;8.18;5.50;;;7.80;99.90;;;;;;4954488;29;20115;-52
2023/12/24 04:13:07;;;;;;;10.07;7.15;;;7.80;99.90;;;;;;4953585;29;20443;-51
2023/12/24 04:15:34;;;;;;;9.15;6.15;;;7.90;99.90;;;;;;4953929;29;20097;-53
2023/12/24 04:18:03;;;;;;;8.77;5.90;;;7.90;99.90;;;;;;4953913;29;20031;-52
2023/12/24 04:20:28;;;;;;;10.45;6.25;;;8.00;99.90;;;;;;4953987;29;20051;-52
2023/12/24 04:22:54;;;;;;;8.07;5.35;;;7.90;99.90;;;;;;4920086;29;20130;-52
2023/12/24 04:25:20;;;;;;;8.15;6.10;;;7.90;99.90;;;;;;4953963;29;20175;-52
2023/12/24 04:27:46;;;;;;;8.30;5.95;;;8.10;99.90;;;;;;4954087;29;20438;-52
2023/12/24 04:30:12;;;;;;;9.52;6.82;;;8.10;99.90;;;;;;4953692;29;20103;-52
2023/12/24 04:32:37;;;;;;;7.38;5.38;;;8.30;99.90;;;;;;4920046;29;20051;-52
2023/12/24 04:35:04;;;;;;;8.88;6.05;;;;;;;;;;4953968;29;20086;-52
2023/12/24 04:37:30;;;;;;;10.05;6.57;;;8.50;99.90;;;;;;4919978;29;20065;-52
2023/12/24 04:39:55;;;;;;;9.55;6.75;;;8.50;99.90;;;;;;4953848;29;20480;-52
2023/12/24 04:42:21;;;;;;;12.00;8.02;;;8.50;99.90;;;;;;4953838;29;20487;-52
2023/12/24 04:44:47;;;;;;;13.82;8.32;;;8.40;99.90;;;;;;4953932;29;20035;-51
2023/12/24 04:47:13;;;;;;;8.27;6.85;;;8.30;99.90;;;;;;4920014;29;20454;-52
2023/12/24 04:49:38;;;;;;;11.20;7.05;;;8.20;99.90;;;;;;4953710;29;20043;-52
2023/12/24 04:52:04;;;;;;;8.27;6.20;;;8.10;99.90;;;;;;4953876;29;20038;-52
2023/12/24 04:54:30;;;;;;;13.57;8.57;;;8.10;99.90;;;;;;4953960;29;20035;-52
2023/12/24 04:56:57;;;;;;;12.88;9.60;;;8.00;99.90;;;;;;4953740;29;20039;-53
2023/12/24 04:59:23;;;;;;;12.60;7.90;;;8.00;99.90;;;;;;4953530;29;20035;-52
2023/12/24 05:01:50;;;;;;;10.63;7.45;;;8.20;99.90;;;;;;4919621;29;20503;-53
2023/12/24 05:04:16;;;;;;;9.60;7.45;;;8.30;99.90;;;;;;4956713;28;20036;-52
2023/12/24 05:06:42;;;;;;;10.43;6.53;;;8.20;99.90;;;;;;4940262;29;20487;-52
2023/12/24 05:09:07;;;;;;;9.85;7.22;;;8.20;99.90;;;;;;4957515;29;20126;-52
2023/12/24 05:11:33;;;;;;;14.18;9.45;;;8.30;99.90;;;;;;4957508;29;20129;-52
2023/12/24 05:14:00;;;;;;;12.32;7.90;;;8.20;99.90;;;;;;4939276;29;20081;-52
2023/12/24 05:16:26;;;;;;;10.20;6.53;;;8.30;99.90;;;;;;4957302;29;20038;-52
2023/12/24 05:18:52;;;;;;;9.25;5.93;;;8.10;99.90;;;;;;4957402;29;20035;-52
2023/12/24 05:21:17;;;;;;;7.53;5.60;;;7.80;99.90;;;;;;4957517;29;20031;-52
2023/12/24 05:23:43;;;;;;;11.05;7.28;;;7.60;99.90;;;;;;4957066;29;20503;-52
2023/12/24 05:26:09;;;;;;;10.00;6.28;;;7.60;99.90;;;;;;4957179;29;20035;-52
2023/12/24 05:28:35;;;;;;;6.93;5.03;;;7.50;99.90;;;;;;4957148;29;20042;-52
2023/12/24 05:31:00;;;;;;;9.18;5.53;;;7.40;99.90;;;;;;4923071;29;20122;-52
2023/12/24 05:33:26;;;;;;;9.60;7.13;;;7.30;99.90;;;;;;4923103;29;20039;-53
2023/12/24 05:35:52;;;;;;;9.05;6.93;;;7.50;99.90;;;;;;4938900;29;20107;-52
2023/12/24 05:38:19;;;;;;;9.63;7.13;;;7.50;99.90;;;;;;4938821;29;20047;-53
2023/12/24 05:40:45;;;;;;;9.07;6.72;;;7.50;99.90;;;;;;4956744;29;20042;-51
2023/12/24 05:43:11;;;;;;;10.90;8.05;;;7.60;99.90;;;;;;4956739;29;20564;-52
2023/12/24 05:45:37;;;;;;;10.52;7.28;;;7.70;99.90;;;;;;4938638;29;20049;-52
2023/12/24 05:48:03;;;;;;;13.75;7.38;;;7.80;99.90;;;;;;4956666;29;20039;-52
2023/12/24 05:50:29;;;;;;;11.63;7.53;;;7.90;99.90;;;;;;4956670;29;20495;-53
2023/12/24 05:52:55;;;;;;;12.05;7.18;;;7.90;99.90;;;;;;4956970;29;20031;-52
2023/12/24 05:55:21;;;;;;;9.52;6.95;;;8.00;99.90;;;;;;4956694;29;20031;-52
2023/12/24 05:57:47;;;;;;;9.90;6.60;;;8.10;99.90;;;;;;4954169;29;20122;-51
2023/12/24 06:00:13;;;;;;;8.80;6.70;;;8.10;99.90;;;;;;4956849;29;20123;-53
2023/12/24 06:02:39;;;;;;;9.60;6.90;;;8.20;99.90;;;;;;4922330;29;20094;-52
2023/12/24 06:05:05;;;;;;;12.57;9.88;;;8.30;99.90;;;;;;4922619;29;20440;-53
2023/12/24 06:07:31;;;;;;;53.28;33.75;;;8.50;99.90;;;;;;4954328;29;20039;-53
2023/12/24 06:09:57;;;;;;;73.75;39.13;;;8.30;99.90;;;;;;4956374;29;20418;-53
2023/12/24 06:12:23;;;;;;;30.52;18.33;;;8.10;99.90;;;;;;4906737;29;20043;-53
2023/12/24 06:14:48;;;;;;;15.00;9.95;;;8.10;99.90;;;;;;4955337;28;20046;-52
2023/12/24 06:17:14;;;;;;;14.40;9.32;;;7.90;99.90;;;;;;4956270;29;20115;-52
2023/12/24 06:19:40;;;;;;;12.95;8.55;;;7.80;99.90;;;;;;4922210;29;20051;-53
2023/12/24 06:22:06;;;;;;;12.43;9.27;;;8.00;99.90;;;;;;4922389;29;20097;-52
2023/12/24 06:24:31;;;;;;;19.92;13.45;;;7.90;99.90;;;;;;4890664;29;20043;-52
2023/12/24 06:26:57;;;;;;;14.52;11.57;;;7.80;99.90;;;;;;4956251;29;20046;-52
2023/12/24 06:29:23;;;;;;;16.48;13.43;;;7.90;99.90;;;;;;4956086;29;20368;-53
2023/12/24 06:31:49;;;;;;;15.57;10.85;;;8.10;99.90;;;;;;4956201;29;20431;-52
2023/12/24 06:34:14;;;;;;;14.20;9.10;;;8.10;99.90;;;;;;4955836;29;20390;-52
2023/12/24 06:36:40;;;;;;;14.23;9.88;;;8.00;99.90;;;;;;4955944;29;20078;-54
2023/12/24 06:39:06;;;;;;;10.70;7.50;;;8.00;99.90;;;;;;4955936;29;20043;-52
2023/12/24 06:41:32;;;;;;;12.63;8.95;;;7.70;99.90;;;;;;4955851;29;20479;-52
2023/12/24 06:43:58;;;;;;;10.80;6.70;;;7.80;99.90;;;;;;4906243;29;20039;-53
2023/12/24 06:46:25;;;;;;;14.95;7.90;;;;;;;;;;4955820;29;20074;-52
2023/12/24 06:48:52;;;;;;;12.88;9.27;;;7.50;99.90;;;;;;4955566;29;20039;-52
2023/12/24 06:51:17;;;;;;;10.02;7.53;;;7.40;99.90;;;;;;4955895;29;20556;-53
2023/12/24 06:53:43;;;;;;;11.15;7.32;;;7.50;99.90;;;;;;4955595;29;20031;-52
2023/12/24 06:56:09;;;;;;;10.98;6.13;;;7.70;99.90;;;;;;4955755;29;20027;-51
2023/12/24 06:58:35;;;;;;;11.73;7.15;;;8.60;99.90;;;;;;4956296;29;20035;-55
2023/12/24 07:01:01;;;;;;;13.85;6.65;;;9.40;99.90;;;;;;4906138;29;20117;-52
2023/12/24 07:03:27;;;;;;;12.80;6.63;;;;;;;;;;4956079;29;20539;-55
2023/12/24 07:05:54;;;;;;;14.02;9.13;;;10.10;99.90;;;;;;4957346;29;20031;-52
2023/12/24 07:08:22;;;;;;;9.48;6.97;;;11.00;99.90;;;;;;4957139;29;20062;-52
2023/12/24 07:10:48;;;;;;;10.25;8.70;;;;;;;;;;4956696;29;20039;-63
2023/12/24 07:13:14;;;;;;;11.60;8.25;;;;;;;;;;4956707;29;20031;-53
2023/12/24 07:15:42;;;;;;;14.82;9.32;;;;;;;;;;4955866;29;20039;-53
2023/12/24 07:18:08;;;;;;;14.77;9.73;;;;;;;;;;4955348;29;20074;-53
2023/12/24 07:20:34;;;;;;;19.92;11.27;;;15.50;94.90;;;;;;4955130;29;20376;-52
2023/12/24 07:23:00;;;;;;;15.68;10.63;;;;;;;;;;4954858;29;20088;-53
2023/12/24 07:25:26;;;;;;;23.13;16.50;;;15.50;93.30;;;;;;4955308;29;20031;-52
2023/12/24 07:27:52;;;;;;;22.27;15.75;;;;;;;;;;4955096;29;20462;-52
2023/12/24 07:30:18;;;;;;;14.32;10.63;;;;;;;;;;4954954;29;20035;-52
2023/12/24 07:32:47;;;;;;;14.38;10.20;;;14.90;99.90;;;;;;4954772;29;20470;-53
2023/12/24 07:35:13;;;;;;;17.30;12.90;;;;;;;;;;4905129;29;20035;-53
2023/12/24 07:37:41;;;;;;;19.55;15.90;;;;;;;;;;4954834;29;20066;-52
2023/12/24 07:40:10;;;;;;;35.92;25.80;;;15.00;99.90;;;;;;4954714;29;20031;-53
2023/12/24 07:42:36;;;;;;;;;;;;;;;;;;4955478;29;20078;-53
2023/12/24 07:45:03;;;;;;;;;;;16.10;93.10;;;;;;4954954;29;20318;-53
2023/12/24 07:47:31;;;;;;;;;;;15.90;92.90;;;;;;4955239;29;19958;-52
2023/12/24 07:49:57;;;;;;;;;;;14.80;93.00;;;;;;4955177;29;19921;-52
2023/12/24 07:52:22;;;;;;;;;;;14.50;94.70;;;;;;4952806;29;20346;-52
2023/12/24 07:54:48;;;;;;;;;;;14.70;94.40;;;;;;4954906;29;19910;-52
2023/12/24 07:57:14;;;;;;;;;;;;;;;;;;4954828;29;20346;-52
2023/12/24 07:59:40;;;;;;;;;;;16.00;99.90;;;;;;4952763;29;19952;-52
2023/12/24 08:02:06;;;;;;;;;;;;;;;;;;4954497;29;20440;-53
2023/12/24 08:04:32;;;;;;;;;;;;;;;;;;4937604;29;19906;-52
2023/12/24 08:06:57;;;;;;;;;;;19.10;99.90;;;;;;4954652;29;19914;-52
2023/12/24 08:09:23;;;;;;;;;;;20.10;91.00;;;;;;4954453;29;20077;-52
2023/12/24 08:11:49;;;;;;;;;;;20.90;90.20;;;;;;4954577;29;20289;-50
2023/12/24 08:14:14;;;;;;;;;;;21.40;89.10;;;;;;4920661;29;19936;-51
2023/12/24 08:16:40;;;;;;;;;;;;;;;;;;4954821;29;19907;-50
2023/12/24 08:19:06;;;;;;;;;;;21.00;86.70;;;;;;4954476;29;19954;-50
2023/12/24 08:21:32;;;;;;;24.33;18.50;;;;;;;;;;4953240;29;20436;-51
2023/12/24 08:23:58;;;;;;;22.35;17.38;;;20.70;86.70;;;;;;4954514;29;20024;-50
2023/12/24 08:26:23;;;;;;;19.40;13.18;;;20.70;84.50;;;;;;4904398;29;20035;-51
2023/12/24 08:28:49;;;;;;;22.50;15.82;;;19.50;85.00;;;;;;4953853;29;20071;-51
2023/12/24 08:31:15;;;;;;;20.00;14.43;;;;;;;;;;4954115;29;20583;-51
2023/12/24 08:33:42;;;;;;;16.60;13.13;;;;;;;;;;4954061;29;20032;-51
2023/12/24 08:36:08;;;;;;;17.67;13.55;;;16.20;88.10;;;;;;4954054;29;20035;-50
2023/12/24 08:38:34;;;;;;;17.55;14.00;;;16.10;89.60;;;;;;4919522;29;20094;-50
2023/12/24 08:41:00;;;;;;;18.52;14.48;;;;;;;;;;4904457;29;20479;-53
2023/12/24 08:43:26;;;;;;;20.65;16.10;;;14.90;91.10;;;;;;4953764;29;20030;-53
2023/12/24 08:45:52;;;;;;;22.45;17.85;;;;;;;;;;4888334;29;20039;-53
2023/12/24 08:48:18;;;;;;;49.65;37.33;;;14.20;92.20;;;;;;4953920;29;20054;-53
2023/12/24 08:50:44;;;;;;;;;;;;;;;;;;4954044;29;20039;-54
2023/12/24 08:53:10;;;;;;;;;;;12.50;95.60;;;;;;4954052;29;19913;-52
2023/12/24 08:55:36;;;;;;;;;;;;;;;;;;4954019;29;19961;-53
2023/12/24 08:58:02;;;;;;;;;;;11.50;99.90;;;;;;4936939;29;19906;-52
2023/12/24 09:00:28;;;;;;;;;;;11.20;99.90;;;;;;4954121;29;19953;-52
2023/12/24 09:02:54;;;;;;;;;;;11.10;99.90;;;;;;4953850;29;19953;-52
2023/12/24 09:05:20;;;;;;;;;;;11.20;99.90;;;;;;4954211;29;19907;-52
2023/12/24 09:07:46;;;;;;;19.43;15.80;;;;;;;;;;4953471;29;20396;-53
2023/12/24 09:10:12;;;;;;;35.17;26.92;;;11.20;99.90;;;;;;4953573;29;20046;-53
2023/12/24 09:12:38;;;;;;;42.65;26.17;;;11.60;99.90;;;;;;4953805;29;20723;-52
2023/12/24 09:15:04;;;;;;;30.73;23.23;;;12.10;99.90;;;;;;4953530;29;20038;-52
2023/12/24 09:17:30;;;;;;;39.72;26.63;;;12.30;99.50;;;;;;4919684;29;20054;-52
2023/12/24 09:19:56;;;;;;;25.88;16.35;;;12.60;99.90;;;;;;4953561;29;20106;-52
2023/12/24 09:22:22;;;;;;;39.67;20.10;;;12.70;99.30;;;;;;4953775;29;20374;-52
2023/12/24 09:24:48;;;;;;;35.70;22.40;;;;;;;;;;4953539;29;20035;-53
2023/12/24 09:27:14;;;;;;;87.22;43.72;;;;;;;;;;4953430;29;20119;-53
2023/12/24 09:29:40;;;;;;;48.95;28.20;;;13.40;99.90;;;;;;4953372;29;20051;-52
2023/12/24 09:32:06;;;;;;;77.80;39.65;;;13.30;97.60;;;;;;4953365;29;20028;-53
2023/12/24 09:34:31;;;;;;;44.45;29.20;;;13.30;97.80;;;;;;4953226;29;20078;-53
2023/12/24 09:36:57;;;;;;;35.88;23.73;;;13.30;97.70;;;;;;4953412;29;20106;-53
2023/12/24 09:39:24;;;;;;;47.65;31.05;;;13.10;98.40;;;;;;4953631;29;20032;-53
2023/12/24 09:41:50;;;;;;;47.70;32.05;;;13.30;98.20;;;;;;4919559;29;20039;-53
2023/12/24 09:44:15;;;;;;;49.40;33.40;;;13.40;98.10;;;;;;4872607;29;20094;-53
2023/12/24 09:46:41;;;;;;;39.67;27.67;;;13.60;98.20;;;;;;4953345;29;20719;-53
2023/12/24 09:49:07;;;;;;;44.40;30.35;;;13.60;97.40;;;;;;4953232;28;20031;-53
2023/12/24 09:51:38;;;;;;;30.02;24.60;;;13.60;97.90;;;;;;4956244;29;20030;-53
2023/12/24 09:54:05;;;;;;;27.98;15.75;;;13.70;97.00;;;;;;4956689;29;20071;-53
2023/12/24 09:56:31;;;;;;;16.17;12.50;;;13.80;96.80;;;;;;4952422;29;20052;-53
2023/12/24 09:58:57;;;;;;;16.85;12.13;;;14.00;96.50;;;;;;4956659;29;20023;-53
2023/12/24 10:01:23;;;;;;;23.60;17.98;;;13.90;96.50;;;;;;4906932;29;20055;-53
2023/12/24 10:03:48;;;;;;;17.42;12.60;;;13.90;96.90;;;;;;4956471;29;20031;-53
2023/12/24 10:06:14;;;;;;;17.90;12.52;;;13.90;97.00;;;;;;4956547;29;20027;-52
2023/12/24 10:08:41;;;;;;;24.85;12.70;;;;;;;;;;4956309;29;20035;-54
2023/12/24 10:11:20;;;;;;;15.10;11.27;;;;;;;;;;4891114;29;20062;-53
2023/12/24 10:13:49;;;;;;;23.98;16.20;;;;;;;;;;4956447;29;20035;-54
2023/12/24 10:16:16;;;;;;;33.67;19.95;;;;;;;;;;4956377;29;20027;-53
2023/12/24 10:18:51;;;;;;;29.90;20.67;;;14.00;99.90;;;;;;4956255;29;20118;-52
2023/12/24 10:21:18;;;;;;;32.03;21.55;;;13.90;99.90;;;;;;4956266;29;20023;-53
2023/12/24 10:23:44;;;;;;;31.88;22.55;;;;;;;;;;4956536;29;20365;-53
2023/12/24 10:26:12;;;;;;;31.75;22.95;;;;;;;;;;4956154;29;20027;-53
2023/12/24 10:28:51;;;;;;;28.88;22.05;;;14.00;99.90;;;;;;4956016;29;20172;-54
2023/12/24 10:31:16;;;;;;;35.72;23.33;;;14.00;99.90;;;;;;4956071;29;20475;-54
2023/12/24 10:33:42;;;;;;;28.95;21.55;;;14.10;99.90;;;;;;4955981;29;20041;-53
2023/12/24 10:36:08;;;;;;;34.50;22.40;;;14.10;99.90;;;;;;4906345;29;20058;-53
2023/12/24 10:38:35;;;;;;;43.95;33.30;;;;;;;;;;4956199;29;20023;-53
2023/12/24 10:41:02;;;;;;;40.25;33.03;;;;;;;;;;4956025;29;20344;-53
2023/12/24 10:43:28;;;;;;;26.48;18.20;;;14.40;99.90;;;;;;4955824;29;20615;-53
2023/12/24 10:45:53;;;;;;;22.85;15.20;;;14.40;96.50;;;;;;4906206;29;20042;-52
2023/12/24 10:48:19;;;;;;;42.10;28.30;;;14.50;96.10;;;;;;4953616;29;20089;-53
2023/12/24 10:50:46;;;;;;;36.30;24.80;;;;;;;;;;4955779;29;20027;-53
2023/12/24 10:53:13;;;;;;;32.88;20.33;;;;;;;;;;4955701;29;20023;-53
2023/12/24 10:55:40;;;;;;;26.50;16.80;;;;;;;;;;4955729;29;20038;-53
2023/12/24 10:58:12;;;;;;;29.13;17.00;;;;;;;;;;4955475;29;20039;-53
2023/12/24 11:00:38;;;;;;;33.90;22.35;;;14.60;99.90;;;;;;4955252;28;20408;-53
2023/12/24 11:03:03;;;;;;;18.88;13.32;;;14.90;96.80;;;;;;4953165;29;20090;-53
2023/12/24 11:05:42;;;;;;;17.65;11.57;;;14.80;97.40;;;;;;4955537;29;20027;-53
2023/12/24 11:08:23;;;;;;;16.17;10.23;;;15.10;96.90;;;;;;4955243;29;20023;-53
2023/12/24 11:10:55;;;;;;;15.20;11.30;;;15.50;99.60;;;;;;4937188;29;20039;-53
2023/12/24 11:13:36;;;;;;;17.38;12.52;;;;;;;;;;4954440;29;20447;-52
2023/12/24 11:16:04;;;;;;;17.08;12.60;;;16.60;96.60;;;;;;4955469;29;20031;-52
2023/12/24 11:18:43;;;;;;;34.28;23.55;;;17.50;94.10;;;;;;4955225;29;20458;-52
2023/12/24 11:21:11;;;;;;;19.88;13.27;;;;;;;;;;4937091;29;20039;-54
2023/12/24 11:23:37;;;;;;;22.08;17.08;;;;;;;;;;4955174;29;20039;-52
2023/12/24 11:26:30;;;;;;;25.83;18.48;;;17.50;91.50;;;;;;4954986;29;20027;-53
2023/12/24 11:28:57;;;;;;;26.85;19.60;;;;;;;;;;4954573;29;20364;-53
2023/12/24 11:31:24;;;;;;;26.08;20.27;;;16.50;92.50;;;;;;4914520;29;20040;-53
2023/12/24 11:33:50;;;;;;;29.42;21.92;;;;;;;;;;4914356;29;20549;-53
2023/12/24 11:36:18;;;;;;;33.88;24.67;;;16.50;99.90;;;;;;4914492;29;20072;-53
2023/12/24 11:38:45;;;;;;;32.38;24.60;;;16.40;93.40;;;;;;4914471;29;20559;-52
2023/12/24 11:41:15;;;;;;;35.58;25.52;;;17.10;93.00;;;;;;4914254;29;20052;-53
2023/12/24 11:44:01;;;;;;;41.40;29.92;;;17.10;92.60;;;;;;4914404;29;20440;-53
2023/12/24 11:46:28;;;;;;;32.58;24.17;;;;;;;;;;4914090;29;20119;-53
2023/12/24 11:48:55;;;;;;;30.33;23.40;;;;;;;;;;4914022;29;20040;-52
2023/12/24 11:51:25;;;;;;;28.10;21.02;;;;;;;;;;4914251;29;20044;-52
2023/12/24 11:53:59;;;;;;;29.20;22.30;;;16.30;99.90;;;;;;4914127;29;20519;-53
2023/12/24 11:56:29;;;;;;;26.48;20.60;;;16.00;93.90;;;;;;4914269;29;20399;-53
2023/12/24 11:58:54;;;;;;;28.73;22.08;;;17.20;95.00;;;;;;4913173;29;20032;-53
2023/12/24 12:01:24;;;;;;;26.40;17.63;;;17.50;93.40;;;;;;4908870;29;20056;-53
2023/12/24 12:03:59;;;;;;;45.92;32.28;;;17.60;93.40;;;;;;4935409;29;20023;-53
2023/12/24 12:06:26;;;;;;;25.65;19.58;;;;;;;;;;4935264;29;20055;-53
2023/12/24 12:08:52;;;;;;;24.00;17.83;;;;;;;;;;4935130;29;20028;-53
2023/12/24 12:11:19;;;;;;;28.90;22.75;;;17.90;99.90;;;;;;4935069;29;20024;-53
2023/12/24 12:13:45;;;;;;;23.42;18.02;;;;;;;;;;4934634;29;20116;-54
2023/12/24 12:16:10;;;;;;;24.05;18.52;;;18.30;99.90;;;;;;4935023;29;20035;-53
2023/12/24 12:18:36;;;;;;;24.73;17.65;;;18.30;92.90;;;;;;4935147;29;20023;-54
2023/12/24 12:21:02;;;;;;;24.08;18.63;;;18.20;94.30;;;;;;4917865;29;20034;-52
2023/12/24 12:23:28;;;;;;;24.60;15.57;;;18.30;96.40;;;;;;4935013;29;20035;-54
2023/12/24 12:25:54;;;;;;;19.25;13.48;;;18.30;92.10;;;;;;4934900;29;20035;-53
2023/12/24 12:28:19;;;;;;;21.75;14.95;;;18.20;91.50;;;;;;4935014;29;20551;-53
2023/12/24 12:30:46;;;;;;;22.67;16.92;;;;;;;;;;4935120;29;20583;-52
2023/12/24 12:33:12;;;;;;;22.80;16.08;;;18.40;99.90;;;;;;4934902;29;20368;-53
2023/12/24 12:35:38;;;;;;;19.25;15.45;;;17.50;96.10;;;;;;4934734;29;20376;-53
2023/12/24 12:38:04;;;;;;;18.25;12.73;;;17.50;98.80;;;;;;4934662;29;20028;-53
2023/12/24 12:40:30;;;;;;;19.17;13.95;;;17.30;97.70;;;;;;4934772;29;20098;-52
2023/12/24 12:42:56;;;;;;;19.60;13.80;;;;;;;;;;4934713;29;20028;-53
2023/12/24 12:45:22;;;;;;;18.98;14.32;;;16.50;93.30;;;;;;4934555;29;20384;-53
2023/12/24 12:47:48;;;;;;;20.52;14.25;;;16.40;94.30;;;;;;4934917;29;20032;-53
2023/12/24 12:50:14;;;;;;;20.48;15.38;;;16.40;94.50;;;;;;4934741;29;20079;-52
2023/12/24 12:52:40;;;;;;;22.08;17.70;;;16.10;94.50;;;;;;4934730;29;20031;-53
2023/12/24 12:55:07;;;;;;;43.58;36.08;;;;;;;;;;4900759;29;20503;-55
2023/12/24 12:57:36;;;;;;;28.55;20.98;;;15.80;99.90;;;;;;4934837;29;20028;-53
2023/12/24 13:00:30;;;;;;;22.92;19.25;;;15.40;96.20;;;;;;4934604;29;20059;-53